createdAt,value
2017-07-22T00:00:27.938Z,38.60
2017-07-22T00:02:55.731Z,38.40
2017-07-22T00:05:23.468Z,38.40
2017-07-22T00:07:51.574Z,38.40
2017-07-22T00:10:19.297Z,38.70
2017-07-22T00:12:47.076Z,37.90
2017-07-22T00:15:14.896Z,38.00
2017-07-22T00:17:42.708Z,38.10
2017-07-22T00:20:10.430Z,38.20
2017-07-22T00:22:38.992Z,38.10
2017-07-22T00:25:07.112Z,38.10
2017-07-22T00:27:34.828Z,37.80
2017-07-22T00:30:02.568Z,39.30
2017-07-22T00:32:30.735Z,39.40
2017-07-22T00:34:58.451Z,38.90
2017-07-22T00:37:26.218Z,38.60
2017-07-22T00:39:53.945Z,37.70
2017-07-22T00:42:21.712Z,37.60
2017-07-22T00:44:49.498Z,37.50
2017-07-22T00:47:17.977Z,38.10
2017-07-22T00:49:45.696Z,37.60
2017-07-22T00:52:13.482Z,37.50
2017-07-22T00:54:41.587Z,37.80
2017-07-22T00:57:09.705Z,38.50
2017-07-22T00:59:37.418Z,39.10
2017-07-22T01:02:05.132Z,39.70
2017-07-22T01:04:33.312Z,40.40
2017-07-22T01:07:01.666Z,41.70
2017-07-22T01:09:29.384Z,42.80
2017-07-22T01:11:57.871Z,42.90
2017-07-22T01:14:25.591Z,43.30
2017-07-22T01:16:53.367Z,43.80
2017-07-22T01:19:21.553Z,44.30
2017-07-22T01:21:50.047Z,45.40
2017-07-22T01:24:17.765Z,45.90
2017-07-22T01:26:45.536Z,46.30
2017-07-22T01:29:13.646Z,45.90
2017-07-22T01:31:41.841Z,46.00
2017-07-22T01:34:09.637Z,46.30
2017-07-22T01:36:37.408Z,46.80
2017-07-22T01:39:05.524Z,46.90
2017-07-22T01:41:33.258Z,46.70
2017-07-22T01:44:01.031Z,46.60
2017-07-22T01:46:29.161Z,46.70
2017-07-22T01:48:57.639Z,46.30
2017-07-22T01:51:25.758Z,46.30
2017-07-22T01:53:54.284Z,46.20
2017-07-22T01:56:22.395Z,46.00
2017-07-22T01:58:50.558Z,46.10
2017-07-22T02:01:18.728Z,46.50
2017-07-22T02:03:46.504Z,46.50
2017-07-22T02:06:14.233Z,46.20
2017-07-22T02:08:41.995Z,46.10
2017-07-22T02:11:09.716Z,46.10
2017-07-22T02:13:37.454Z,46.30
2017-07-22T02:16:05.171Z,45.90
2017-07-22T02:18:32.879Z,46.00
2017-07-22T02:21:00.606Z,45.90
2017-07-22T02:23:28.332Z,46.00
2017-07-22T02:25:56.047Z,46.00
2017-07-22T02:28:23.820Z,46.00
2017-07-22T02:30:51.983Z,45.60
2017-07-22T02:33:20.841Z,45.00
2017-07-22T02:35:49.014Z,45.10
2017-07-22T02:38:17.553Z,44.90
2017-07-22T02:40:45.716Z,45.00
2017-07-22T02:43:13.826Z,45.00
2017-07-22T02:45:41.586Z,45.00
2017-07-22T02:48:09.752Z,45.20
2017-07-22T02:50:37.971Z,45.20
2017-07-22T02:53:06.128Z,45.30
2017-07-22T02:55:33.885Z,45.40
2017-07-22T02:58:02.438Z,45.40
2017-07-22T03:00:30.607Z,45.20
2017-07-22T03:02:58.336Z,45.20
2017-07-22T03:05:26.054Z,45.50
2017-07-22T03:07:54.975Z,44.80
2017-07-22T03:10:22.689Z,44.90
2017-07-22T03:12:50.398Z,44.60
2017-07-22T03:15:18.131Z,44.40
2017-07-22T03:17:45.912Z,44.00
2017-07-22T03:20:13.628Z,44.30
2017-07-22T03:22:41.343Z,44.10
2017-07-22T03:25:09.520Z,44.20
2017-07-22T03:27:37.302Z,44.10
2017-07-22T03:30:05.020Z,44.30
2017-07-22T03:32:33.122Z,44.50
2017-07-22T03:35:01.234Z,44.20
2017-07-22T03:37:29.359Z,44.00
2017-07-22T03:39:57.146Z,43.70
2017-07-22T03:42:24.944Z,43.10
2017-07-22T03:44:52.763Z,43.30
2017-07-22T03:47:21.276Z,43.10
2017-07-22T03:49:49.011Z,42.60
2017-07-22T03:52:16.812Z,42.40
2017-07-22T03:54:44.604Z,42.10
2017-07-22T03:57:12.375Z,41.80
2017-07-22T03:59:40.221Z,41.60
2017-07-22T04:02:09.122Z,41.50
2017-07-22T04:04:37.308Z,41.00
2017-07-22T04:07:05.083Z,41.40
2017-07-22T04:09:34.321Z,41.40
2017-07-22T04:12:02.531Z,41.20
2017-07-22T04:14:30.658Z,41.50
2017-07-22T04:16:58.842Z,41.40
2017-07-22T04:19:26.576Z,41.50
2017-07-22T04:21:55.506Z,41.50
2017-07-22T04:24:24.477Z,41.60
2017-07-22T04:26:58.660Z,41.80
2017-07-22T04:29:26.500Z,42.20
2017-07-22T04:31:54.679Z,42.30
2017-07-22T04:34:22.900Z,42.30
2017-07-22T04:36:50.965Z,42.10
2017-07-22T04:39:18.707Z,42.80
